Beulah, Colorado
Current Conditions -  °F | °C
As of 1:15 AM on Monday 26 Jan 2015 (Local Time) from K1V6 Reporting Station
Clear Clear  
Wind Chill: 36°   Ceiling: Unl
Heat Index: 45°   Visibility: 10mi
Dew Point: 28°   Wind: 21mph
Humidity: 53%   Direction: 290°WNW
Pressure: 30.24"   Gusts: NA
Location:  38.08°N, 104.99°W
Report Text: K1V6 260815Z AUTO 29018KT 10SM CLR 07/M02 A3024 RMK AO2
Loading
Personal Weather Stations






























Interactive Weather Map New forecast layout! Learn more

10-Day Weather Forecast

Advertisements
Track Severe Weather on mobile